createdAt,value
2019-04-25T00:02:28.671Z,26.70
2019-04-25T00:04:58.194Z,27.37
2019-04-25T00:07:27.807Z,29.87
2019-04-25T00:09:57.103Z,27.03
2019-04-25T00:12:26.473Z,25.77
2019-04-25T00:14:55.887Z,29.97
2019-04-25T00:17:25.857Z,26.23
2019-04-25T00:19:55.125Z,26.87
2019-04-25T00:22:31.684Z,24.10
2019-04-25T00:25:18.138Z,27.67
2019-04-25T00:27:48.506Z,26.57
2019-04-25T00:30:19.338Z,25.83
2019-04-25T00:32:49.294Z,27.20
2019-04-25T00:35:18.832Z,31.83
2019-04-25T00:37:48.080Z,25.43
2019-04-25T00:40:17.327Z,23.73
2019-04-25T00:42:46.688Z,24.70
2019-04-25T00:45:16.482Z,26.03
2019-04-25T00:47:45.748Z,25.37
2019-04-25T00:50:15.012Z,24.37
2019-04-25T00:52:44.855Z,24.43
2019-04-25T00:55:25.920Z,28.87
2019-04-25T00:57:46.877Z,26.80
2019-04-25T01:00:37.522Z,22.67
2019-04-25T01:03:08.278Z,28.47
2019-04-25T01:05:37.509Z,23.10
2019-04-25T01:08:06.742Z,26.63
2019-04-25T01:10:36.027Z,26.17
2019-04-25T01:13:05.456Z,22.23
2019-04-25T01:15:34.876Z,24.50
2019-04-25T01:18:04.663Z,22.90
2019-04-25T01:20:34.469Z,27.13
2019-04-25T01:23:03.856Z,22.83
2019-04-25T01:25:40.428Z,25.87
2019-04-25T01:28:04.211Z,25.60
2019-04-25T01:30:34.085Z,24.23
2019-04-25T01:33:04.179Z,24.83
2019-04-25T01:35:48.901Z,24.20
2019-04-25T01:38:33.511Z,26.23
2019-04-25T01:41:21.998Z,26.13
2019-04-25T01:44:14.338Z,23.83
2019-04-25T01:46:45.612Z,23.67
2019-04-25T01:49:15.007Z,23.77
2019-04-25T01:51:44.391Z,24.47
2019-04-25T01:54:14.132Z,24.73
2019-04-25T01:56:44.314Z,22.40
2019-04-25T01:59:15.225Z,23.03
2019-04-25T02:01:44.665Z,29.17
2019-04-25T02:04:14.040Z,23.20
2019-04-25T02:06:43.472Z,23.50
2019-04-25T02:09:14.182Z,24.50
2019-04-25T02:12:05.608Z,21.63
2019-04-25T02:14:35.423Z,23.70
2019-04-25T02:17:04.740Z,25.63
2019-04-25T02:19:35.724Z,22.57
2019-04-25T02:22:04.989Z,22.97
2019-04-25T02:24:34.223Z,23.07
2019-04-25T02:27:04.639Z,25.93
2019-04-25T02:29:34.047Z,22.80
2019-04-25T02:32:08.754Z,24.10
2019-04-25T02:34:34.944Z,26.57
2019-04-25T02:37:09.179Z,24.20
2019-04-25T02:39:37.457Z,22.93
2019-04-25T02:42:08.480Z,23.47
2019-04-25T02:44:40.371Z,28.03
2019-04-25T02:47:29.541Z,26.07
2019-04-25T02:50:09.219Z,23.50
2019-04-25T02:52:47.164Z,24.23
2019-04-25T02:55:31.131Z,28.67
2019-04-25T02:57:47.369Z,23.50
2019-04-25T03:00:27.692Z,25.67
2019-04-25T03:02:59.029Z,25.10
2019-04-25T03:05:28.611Z,27.73
2019-04-25T03:07:59.845Z,26.63
2019-04-25T03:10:30.966Z,24.70
2019-04-25T03:13:02.028Z,22.50
2019-04-25T03:15:34.204Z,27.57
2019-04-25T03:18:05.773Z,25.60
2019-04-25T03:20:47.489Z,26.97
2019-04-25T03:23:36.508Z,25.97
2019-04-25T03:26:07.552Z,34.90
2019-04-25T03:28:37.003Z,26.00
2019-04-25T03:31:13.394Z,29.63
2019-04-25T03:33:38.798Z,28.17
2019-04-25T03:36:09.324Z,25.30
2019-04-25T03:38:38.887Z,25.67
2019-04-25T03:41:08.657Z,25.87
2019-04-25T03:43:40.410Z,26.40
2019-04-25T03:46:10.324Z,26.63
2019-04-25T03:48:40.026Z,31.20
2019-04-25T03:51:10.005Z,25.93
2019-04-25T03:53:39.226Z,25.07
2019-04-25T03:56:08.709Z,25.40
2019-04-25T03:58:38.216Z,24.33
2019-04-25T04:01:09.636Z,26.30
2019-04-25T04:03:38.972Z,24.43
2019-04-25T04:06:08.682Z,29.80
2019-04-25T04:08:38.874Z,26.53
2019-04-25T04:11:08.681Z,27.27
2019-04-25T04:13:38.001Z,24.53
2019-04-25T04:16:07.255Z,28.43
2019-04-25T04:18:44.404Z,24.17
2019-04-25T04:21:38.768Z,25.90
2019-04-25T04:24:16.058Z,27.40
2019-04-25T04:27:06.700Z,26.53
2019-04-25T04:29:35.293Z,31.30
2019-04-25T04:32:04.738Z,30.47
2019-04-25T04:34:34.679Z,24.53
2019-04-25T04:37:04.103Z,25.27
2019-04-25T04:39:33.887Z,29.87
2019-04-25T04:42:03.795Z,29.70
2019-04-25T04:44:34.346Z,26.37
2019-04-25T04:47:04.117Z,29.63
2019-04-25T04:49:34.398Z,26.27
2019-04-25T04:52:04.486Z,30.57
2019-04-25T04:54:34.975Z,26.83
2019-04-25T04:57:16.893Z,32.30
2019-04-25T04:59:35.253Z,28.53
2019-04-25T05:02:18.785Z,32.10
2019-04-25T05:05:07.206Z,30.93
2019-04-25T05:07:45.971Z,29.00
2019-04-25T05:10:17.716Z,32.97
2019-04-25T05:12:46.280Z,33.87
2019-04-25T05:15:16.870Z,30.10
2019-04-25T05:17:46.643Z,29.63
2019-04-25T05:20:17.512Z,43.40
2019-04-25T05:22:46.925Z,31.60
2019-04-25T05:25:17.682Z,34.70
2019-04-25T05:27:59.593Z,34.70
2019-04-25T05:30:26.460Z,34.23
2019-04-25T05:32:54.885Z,29.30
2019-04-25T05:35:25.280Z,50.87
2019-04-25T05:37:54.795Z,33.17
2019-04-25T05:40:24.503Z,29.23
2019-04-25T05:43:15.001Z,24.33
2019-04-25T05:45:44.493Z,32.37
2019-04-25T05:48:15.208Z,36.67
2019-04-25T05:50:45.043Z,33.13
2019-04-25T05:53:16.176Z,31.87
2019-04-25T05:55:45.697Z,32.40
2019-04-25T05:58:15.057Z,31.00
2019-04-25T06:00:44.630Z,41.13
2019-04-25T06:03:13.885Z,33.97
2019-04-25T06:05:43.455Z,29.63
2019-04-25T06:08:14.188Z,28.57
2019-04-25T06:11:04.038Z,30.00
2019-04-25T06:13:46.967Z,32.77
2019-04-25T06:16:21.016Z,28.53
2019-04-25T06:19:16.377Z,31.53
2019-04-25T06:21:43.571Z,29.87
2019-04-25T06:24:32.769Z,35.30
2019-04-25T06:27:25.616Z,28.97
2019-04-25T06:30:04.579Z,27.83
2019-04-25T06:32:35.340Z,25.97
2019-04-25T06:35:05.557Z,27.03
2019-04-25T06:37:35.131Z,31.67
2019-04-25T06:40:06.056Z,29.77
2019-04-25T06:42:36.343Z,24.37
2019-04-25T06:45:25.303Z,24.60
2019-04-25T06:48:04.965Z,25.80
2019-04-25T06:50:35.416Z,25.00
2019-04-25T06:53:05.248Z,19.43
2019-04-25T06:55:34.905Z,21.87
2019-04-25T06:58:11.644Z,25.57
2019-04-25T07:00:41.138Z,26.70
2019-04-25T07:03:06.424Z,29.47
2019-04-25T07:05:40.284Z,25.73
2019-04-25T07:08:06.757Z,21.77
2019-04-25T07:10:36.065Z,19.23
2019-04-25T07:13:05.334Z,21.53
2019-04-25T07:15:35.309Z,21.93
2019-04-25T07:18:04.560Z,23.57
2019-04-25T07:20:34.539Z,18.10
2019-04-25T07:23:04.973Z,24.57
2019-04-25T07:25:37.031Z,16.43
2019-04-25T07:28:32.468Z,17.30
2019-04-25T07:31:23.260Z,19.10
2019-04-25T07:33:59.508Z,23.37
2019-04-25T07:36:28.886Z,17.63
2019-04-25T07:39:08.210Z,24.40
2019-04-25T07:41:29.354Z,17.97
2019-04-25T07:43:58.600Z,27.80
2019-04-25T07:46:27.872Z,22.07
2019-04-25T07:48:57.161Z,28.07
2019-04-25T07:51:26.853Z,24.98
2019-04-25T07:53:56.045Z,25.60
2019-04-25T07:56:25.447Z,27.90
2019-04-25T07:58:54.886Z,26.02
2019-04-25T08:01:24.147Z,26.37
2019-04-25T08:03:53.890Z,26.15
2019-04-25T08:06:24.209Z,26.97
2019-04-25T08:08:54.591Z,29.20
2019-04-25T08:11:24.145Z,29.12
2019-04-25T08:14:16.339Z,24.82
2019-04-25T08:16:48.785Z,28.45
2019-04-25T08:19:18.335Z,23.42
2019-04-25T08:21:48.580Z,24.15
2019-04-25T08:24:18.275Z,26.85
2019-04-25T08:26:47.538Z,27.55
2019-04-25T08:29:16.780Z,25.62
2019-04-25T08:31:46.088Z,21.75
2019-04-25T08:34:15.340Z,25.68
2019-04-25T08:36:45.778Z,24.72
2019-04-25T08:39:15.367Z,24.98
2019-04-25T08:41:45.707Z,21.85
2019-04-25T08:44:15.164Z,22.27
2019-04-25T08:46:48.425Z,24.35
2019-04-25T08:49:21.194Z,25.23
2019-04-25T08:51:51.478Z,20.08
2019-04-25T08:54:47.568Z,22.85
2019-04-25T08:57:36.048Z,26.87
2019-04-25T09:00:14.332Z,22.60
2019-04-25T09:02:50.234Z,24.20
2019-04-25T09:05:24.166Z,22.20
2019-04-25T09:07:54.370Z,22.32
2019-04-25T09:10:23.930Z,22.00
2019-04-25T09:12:53.738Z,21.20
2019-04-25T09:15:24.140Z,19.07
2019-04-25T09:17:54.667Z,22.27
2019-04-25T09:20:24.274Z,20.48
2019-04-25T09:22:54.248Z,26.15
2019-04-25T09:25:24.032Z,20.37
2019-04-25T09:27:54.426Z,22.48
2019-04-25T09:30:24.144Z,26.35
2019-04-25T09:32:53.668Z,23.32
2019-04-25T09:35:23.643Z,21.30
2019-04-25T09:37:53.684Z,19.45
2019-04-25T09:40:24.093Z,21.93
2019-04-25T09:42:53.844Z,25.17
2019-04-25T09:45:55.025Z,21.90
2019-04-25T09:48:29.845Z,23.45
2019-04-25T09:51:13.591Z,35.17
2019-04-25T09:53:50.035Z,26.10
2019-04-25T09:56:25.498Z,25.17
2019-04-25T09:59:27.276Z,24.10
2019-04-25T10:01:51.476Z,30.95
2019-04-25T10:04:22.975Z,27.15
2019-04-25T10:06:53.479Z,23.22
2019-04-25T10:09:23.785Z,28.70
2019-04-25T10:11:54.729Z,27.70
2019-04-25T10:14:58.580Z,36.95
2019-04-25T10:17:29.337Z,32.98
2019-04-25T10:19:58.634Z,31.05
2019-04-25T10:22:29.378Z,33.92
2019-04-25T10:25:00.671Z,28.45
2019-04-25T10:27:29.866Z,31.73
2019-04-25T10:30:14.529Z,35.92
2019-04-25T10:32:33.526Z,28.23
2019-04-25T10:35:02.945Z,28.95
2019-04-25T10:37:33.659Z,34.48
2019-04-25T10:40:05.282Z,33.15
2019-04-25T10:42:34.733Z,30.68
2019-04-25T10:45:04.400Z,27.17
2019-04-25T10:47:35.180Z,39.92
2019-04-25T10:50:05.046Z,27.67
2019-04-25T10:52:34.287Z,30.27
2019-04-25T10:55:04.243Z,33.38
2019-04-25T10:57:34.062Z,28.83
2019-04-25T11:00:09.076Z,28.98
2019-04-25T11:02:36.089Z,27.52
2019-04-25T11:05:11.417Z,31.80
2019-04-25T11:07:40.715Z,28.62
2019-04-25T11:10:10.009Z,27.25
2019-04-25T11:12:40.041Z,26.27
2019-04-25T11:15:09.782Z,31.05
2019-04-25T11:17:39.088Z,26.07
2019-04-25T11:20:14.184Z,28.12
2019-04-25T11:22:44.767Z,33.40
2019-04-25T11:25:15.009Z,29.98
2019-04-25T11:27:47.359Z,30.32
2019-04-25T11:30:16.696Z,26.55
2019-04-25T11:32:45.948Z,25.85
2019-04-25T11:35:15.411Z,30.90
2019-04-25T11:37:44.871Z,30.57
2019-04-25T11:40:32.005Z,27.90
2019-04-25T11:43:01.541Z,27.90
2019-04-25T11:45:30.899Z,32.27
2019-04-25T11:48:00.190Z,27.90
2019-04-25T11:50:29.739Z,34.13
2019-04-25T11:52:59.075Z,30.73
2019-04-25T11:55:28.547Z,32.57
2019-04-25T11:57:58.379Z,34.83
2019-04-25T12:00:29.761Z,33.13
2019-04-25T12:02:59.097Z,30.70
2019-04-25T12:05:30.169Z,32.73
2019-04-25T12:07:59.440Z,32.60
2019-04-25T12:10:30.479Z,30.80
2019-04-25T12:12:59.786Z,29.73
2019-04-25T12:15:29.371Z,28.80
2019-04-25T12:17:58.723Z,32.07
2019-04-25T12:20:27.979Z,31.10
2019-04-25T12:23:05.931Z,28.73
2019-04-25T12:25:28.585Z,27.37
2019-04-25T12:27:57.826Z,25.67
2019-04-25T12:30:37.455Z,34.00
2019-04-25T12:32:58.149Z,29.63
2019-04-25T12:35:27.430Z,26.20
2019-04-25T12:37:56.680Z,30.40
2019-04-25T12:40:25.987Z,26.77
2019-04-25T12:42:55.246Z,25.93
2019-04-25T12:45:34.358Z,28.53
2019-04-25T12:48:04.142Z,27.43
2019-04-25T12:50:33.710Z,32.47
2019-04-25T12:53:03.758Z,29.13
2019-04-25T12:55:34.196Z,27.90
2019-04-25T12:58:04.244Z,31.30
2019-04-25T13:00:34.173Z,28.97
2019-04-25T13:03:06.914Z,26.53
2019-04-25T13:05:35.375Z,33.87
2019-04-25T13:08:04.961Z,28.90
2019-04-25T13:10:34.497Z,33.30
2019-04-25T13:13:04.063Z,30.23
2019-04-25T13:15:34.192Z,28.90
2019-04-25T13:18:03.623Z,30.53
2019-04-25T13:20:32.860Z,29.40
2019-04-25T13:23:03.538Z,26.70
2019-04-25T13:25:34.310Z,30.13
2019-04-25T13:28:25.435Z,30.60
2019-04-25T13:31:14.812Z,29.67
2019-04-25T13:33:58.867Z,28.87
2019-04-25T13:36:28.402Z,29.50
2019-04-25T13:38:57.658Z,33.93
2019-04-25T13:41:27.036Z,31.60
2019-04-25T13:43:56.655Z,30.77
2019-04-25T13:46:27.682Z,32.43
2019-04-25T13:48:57.037Z,27.33
2019-04-25T13:51:26.477Z,29.77
2019-04-25T13:53:55.809Z,27.60
2019-04-25T13:56:26.540Z,29.37
2019-04-25T13:58:56.456Z,29.27
2019-04-25T14:01:25.966Z,26.33
2019-04-25T14:03:55.788Z,33.10
2019-04-25T14:06:26.151Z,24.73
2019-04-25T14:08:55.594Z,25.50
2019-04-25T14:11:25.916Z,24.07
2019-04-25T14:13:55.534Z,20.23
2019-04-25T14:16:49.549Z,24.07
2019-04-25T14:19:37.731Z,23.67
2019-04-25T14:22:07.325Z,22.50
2019-04-25T14:24:36.579Z,24.60
2019-04-25T14:27:06.204Z,18.87
2019-04-25T14:29:35.558Z,20.03
2019-04-25T14:32:06.504Z,24.10
2019-04-25T14:34:35.765Z,17.23
2019-04-25T14:37:05.226Z,19.50
2019-04-25T14:39:34.497Z,20.10
2019-04-25T14:42:03.740Z,21.10
2019-04-25T14:44:33.583Z,22.50
2019-04-25T14:47:03.069Z,17.73
2019-04-25T14:49:33.249Z,19.20
2019-04-25T14:52:02.579Z,20.63
2019-04-25T14:54:37.968Z,18.37
2019-04-25T14:57:15.358Z,19.13
2019-04-25T14:59:44.615Z,18.60
2019-04-25T15:02:14.059Z,17.07
2019-04-25T15:04:43.471Z,22.30
2019-04-25T15:07:12.723Z,23.87
2019-04-25T15:09:42.054Z,21.03
2019-04-25T15:12:11.713Z,19.40
2019-04-25T15:14:40.993Z,17.70
2019-04-25T15:17:10.641Z,22.63
2019-04-25T15:19:40.009Z,18.37
2019-04-25T15:22:09.261Z,18.97
2019-04-25T15:24:38.542Z,21.80
2019-04-25T15:27:07.867Z,21.63
2019-04-25T15:29:37.111Z,18.70
2019-04-25T15:32:08.330Z,18.13
2019-04-25T15:34:50.055Z,17.83
2019-04-25T15:37:41.211Z,19.77
2019-04-25T15:40:17.389Z,17.03
2019-04-25T15:43:05.579Z,15.87
2019-04-25T15:45:49.238Z,17.60
2019-04-25T15:48:18.667Z,19.57
2019-04-25T15:50:47.967Z,18.77
2019-04-25T15:53:17.254Z,17.40
2019-04-25T15:55:46.497Z,17.10
2019-04-25T15:58:16.033Z,17.90
2019-04-25T16:00:45.493Z,21.13
2019-04-25T16:03:14.848Z,16.97
2019-04-25T16:05:44.267Z,16.93
2019-04-25T16:08:13.586Z,17.77
2019-04-25T16:10:42.943Z,19.87
2019-04-25T16:13:12.372Z,21.70
2019-04-25T16:15:41.674Z,19.13
2019-04-25T16:18:11.478Z,22.43
2019-04-25T16:20:40.735Z,17.83
2019-04-25T16:23:10.036Z,16.70
2019-04-25T16:25:39.309Z,15.17
2019-04-25T16:28:08.592Z,14.60
2019-04-25T16:30:38.637Z,15.43
2019-04-25T16:33:08.189Z,17.10
2019-04-25T16:35:37.853Z,18.37
2019-04-25T16:38:07.316Z,17.67
2019-04-25T16:40:36.556Z,18.17
2019-04-25T16:43:08.166Z,22.53
2019-04-25T16:45:39.179Z,23.53
2019-04-25T16:48:08.417Z,17.03
2019-04-25T16:50:37.659Z,21.07
2019-04-25T16:53:06.986Z,18.70
2019-04-25T16:55:36.694Z,14.90
2019-04-25T16:58:06.191Z,19.60
2019-04-25T17:00:49.333Z,15.47
2019-04-25T17:03:19.048Z,15.63
2019-04-25T17:05:48.472Z,17.67
2019-04-25T17:08:18.103Z,18.87
2019-04-25T17:10:47.384Z,18.67
2019-04-25T17:13:16.607Z,17.67
2019-04-25T17:16:12.615Z,16.73
2019-04-25T17:18:48.313Z,13.73
2019-04-25T17:21:17.678Z,15.93
2019-04-25T17:23:46.922Z,14.93
2019-04-25T17:26:16.455Z,18.37
2019-04-25T17:28:47.383Z,16.17
2019-04-25T17:31:34.577Z,17.67
2019-04-25T17:34:14.588Z,16.33
2019-04-25T17:37:01.212Z,17.07
2019-04-25T17:39:40.801Z,16.80
2019-04-25T17:42:10.059Z,18.80
2019-04-25T17:44:39.303Z,21.10
2019-04-25T17:47:08.626Z,17.20
2019-04-25T17:49:37.972Z,17.97
2019-04-25T17:52:07.247Z,18.70
2019-04-25T17:54:36.678Z,19.67
2019-04-25T17:57:05.988Z,14.80
2019-04-25T17:59:35.277Z,17.77
2019-04-25T18:02:04.889Z,17.80
2019-04-25T18:04:34.206Z,17.80
2019-04-25T18:07:04.132Z,17.77
2019-04-25T18:09:34.413Z,18.50
2019-04-25T18:12:04.707Z,17.97
2019-04-25T18:14:34.038Z,16.13
2019-04-25T18:17:04.745Z,20.00
2019-04-25T18:20:02.084Z,16.90
2019-04-25T18:22:51.490Z,17.50
2019-04-25T18:25:34.407Z,17.60
2019-04-25T18:28:17.823Z,20.30
2019-04-25T18:30:48.073Z,16.27
2019-04-25T18:33:28.464Z,17.97
2019-04-25T18:36:20.499Z,18.43
2019-04-25T18:38:59.380Z,16.03
2019-04-25T18:41:39.796Z,18.83
2019-04-25T18:44:09.407Z,18.60
2019-04-25T18:46:41.296Z,15.90
2019-04-25T18:49:10.566Z,17.00
2019-04-25T18:51:40.693Z,19.60
2019-04-25T18:54:23.266Z,18.33
2019-04-25T18:57:00.279Z,18.00
2019-04-25T18:59:41.585Z,17.47
2019-04-25T19:02:31.099Z,19.10
2019-04-25T19:05:19.289Z,16.27
2019-04-25T19:07:48.769Z,16.87
2019-04-25T19:10:18.098Z,18.27
2019-04-25T19:12:47.427Z,19.33
2019-04-25T19:15:16.892Z,18.07
2019-04-25T19:17:46.154Z,19.93
2019-04-25T19:20:15.504Z,25.17
2019-04-25T19:22:45.760Z,17.70
2019-04-25T19:25:15.511Z,17.77
2019-04-25T19:27:44.975Z,18.30
2019-04-25T19:30:16.211Z,20.27
2019-04-25T19:32:45.482Z,20.73
2019-04-25T19:35:14.842Z,20.53
2019-04-25T19:37:44.117Z,19.93
2019-04-25T19:40:23.686Z,18.17
2019-04-25T19:42:56.574Z,18.97
2019-04-25T19:45:26.055Z,22.43
2019-04-25T19:47:55.408Z,16.60
2019-04-25T19:50:24.685Z,19.33
2019-04-25T19:52:53.988Z,24.00
2019-04-25T19:55:23.275Z,20.23
2019-04-25T19:57:52.613Z,15.00
2019-04-25T20:00:22.881Z,17.10
2019-04-25T20:03:02.218Z,14.93
2019-04-25T20:05:46.203Z,19.10
2019-04-25T20:08:25.196Z,19.63
2019-04-25T20:10:58.395Z,17.23
2019-04-25T20:13:27.695Z,17.17
2019-04-25T20:15:56.971Z,19.23
2019-04-25T20:18:26.298Z,19.60
2019-04-25T20:20:55.572Z,21.93
2019-04-25T20:23:24.879Z,22.77
2019-04-25T20:25:56.269Z,24.40
2019-04-25T20:28:25.106Z,25.07
2019-04-25T20:30:54.571Z,23.40
2019-04-25T20:33:24.223Z,25.50
2019-04-25T20:35:53.542Z,20.27
2019-04-25T20:38:22.925Z,18.77
2019-04-25T20:40:52.224Z,18.10
2019-04-25T20:43:21.514Z,22.20
2019-04-25T20:45:50.824Z,22.43
2019-04-25T20:48:20.084Z,19.90
2019-04-25T20:50:50.323Z,18.67
2019-04-25T20:53:19.644Z,16.83
2019-04-25T20:55:50.777Z,18.13
2019-04-25T20:58:20.079Z,17.50
2019-04-25T21:00:52.518Z,17.27
2019-04-25T21:03:22.063Z,20.20
2019-04-25T21:05:55.103Z,21.30
2019-04-25T21:08:24.731Z,24.80
2019-04-25T21:10:53.984Z,17.43
2019-04-25T21:13:34.788Z,18.80
2019-04-25T21:16:22.127Z,20.77
2019-04-25T21:18:57.822Z,21.07
2019-04-25T21:21:27.063Z,18.80
2019-04-25T21:23:56.974Z,22.33
2019-04-25T21:26:26.446Z,16.60
2019-04-25T21:28:56.223Z,18.87
2019-04-25T21:31:25.570Z,19.77
2019-04-25T21:33:55.285Z,19.70
2019-04-25T21:36:25.094Z,21.90
2019-04-25T21:38:55.396Z,21.00
2019-04-25T21:41:42.755Z,18.53
2019-04-25T21:44:12.289Z,26.03
2019-04-25T21:46:41.545Z,20.50
2019-04-25T21:49:11.357Z,18.97
2019-04-25T21:51:40.615Z,20.20
2019-04-25T21:54:09.873Z,24.43
2019-04-25T21:56:39.463Z,22.73
2019-04-25T21:59:08.996Z,23.40
2019-04-25T22:01:41.702Z,24.67
2019-04-25T22:04:11.203Z,23.60
2019-04-25T22:06:41.000Z,22.43
2019-04-25T22:09:16.063Z,23.80
2019-04-25T22:11:45.692Z,24.33
2019-04-25T22:14:15.592Z,26.57
2019-04-25T22:16:45.254Z,22.27
2019-04-25T22:19:15.679Z,24.07
2019-04-25T22:21:45.201Z,28.20
2019-04-25T22:24:14.598Z,21.30
2019-04-25T22:26:46.660Z,23.13
2019-04-25T22:29:16.008Z,25.10
2019-04-25T22:31:52.886Z,24.47
2019-04-25T22:34:52.042Z,25.87
2019-04-25T22:37:13.423Z,28.37
2019-04-25T22:39:42.952Z,28.30
2019-04-25T22:42:12.260Z,25.37
2019-04-25T22:44:41.950Z,28.40
2019-04-25T22:47:11.190Z,26.70
2019-04-25T22:49:40.427Z,27.93
2019-04-25T22:52:11.171Z,27.73
2019-04-25T22:54:40.885Z,28.50
2019-04-25T22:57:10.137Z,27.20
2019-04-25T22:59:39.604Z,27.70
2019-04-25T23:02:27.784Z,23.30
2019-04-25T23:05:16.784Z,24.53
2019-04-25T23:07:46.082Z,28.27
2019-04-25T23:10:16.052Z,26.73
2019-04-25T23:12:45.343Z,26.87
2019-04-25T23:15:15.535Z,25.17
2019-04-25T23:17:44.771Z,24.10
2019-04-25T23:20:14.833Z,31.37
2019-04-25T23:22:44.073Z,26.77
2019-04-25T23:25:15.540Z,28.20
2019-04-25T23:28:08.537Z,28.57
2019-04-25T23:30:57.944Z,23.20
2019-04-25T23:33:27.231Z,25.10
2019-04-25T23:35:56.669Z,26.57
2019-04-25T23:38:25.900Z,25.17
2019-04-25T23:40:55.200Z,26.73
2019-04-25T23:43:24.934Z,28.87
2019-04-25T23:45:54.177Z,28.30
2019-04-25T23:48:23.621Z,23.80
2019-04-25T23:50:53.714Z,27.63
2019-04-25T23:53:23.100Z,27.47
2019-04-25T23:55:52.502Z,23.73
2019-04-25T23:58:21.780Z,28.80
